Saga Sky — VRYB8 — position and weather

sailwx.info

Track history (hours):
 
Tides and Currents Weather Stations Pressure Air Temp Water Temp Dewpoint Dewpoint Depression Visibility Wind Speed Wind Dir Waves Ship Positions

Saga Sky

Last reported at 2017-Nov-02 07:01 UTC. Time now 2017-Nov-19 04:46 UTC.
Position S 24°31' W 046°13'.
Warning: this ship's position is 16 days out of date.

Length 199 m; draft 9.3 m.

Type: Cargo ship. MMSI: 477198000.

Date/timePositionNaut miles runAvg speedWind from/ knotsBaromVisibWave heightAir tempDewpointWater temp
2017-Nov-02 07:01S 24°31' W 046°13'012.5
2017-Nov-02 07:00S 24°30' W 046°13'612.2
2017-Nov-02 06:30S 24°26' W 046°18'612.3
2017-Nov-02 06:00S 24°21' W 046°22'612.7
2017-Nov-02 05:30S 24°15' W 046°23'612.9
2017-Nov-02 05:00S 24°08' W 046°23'611.1
2017-Nov-02 04:30S 24°03' W 046°21'4 8.3
2017-Nov-02 04:00S 23°60' W 046°19'2 4.6
2017-Nov-02 03:30S 23°57' W 046°18'1 0.0
2017-Oct-31 12:50S 23°56' W 046°19'0 0.0
2017-Oct-31 10:24S 23°56' W 046°19'0 0.0
2017-Oct-31 03:05S 23°56' W 046°19'1 3.1
2017-Oct-31 02:52S 23°57' W 046°18'3 6.9
2017-Oct-31 02:30S 23°60' W 046°18'4 8.2
2017-Oct-31 02:00S 24°02' W 046°21'510.5
2017-Oct-31 01:30S 24°07' W 046°23'2 4.7
2017-Oct-31 01:00S 24°09' W 046°23'3 5.4
2017-Oct-31 00:30S 24°10' W 046°20'0 0.5
2017-Oct-31 00:00S 24°10' W 046°20'0 0.0
2017-Oct-30 23:30S 24°10' W 046°20'0 0.0
2017-Oct-30 22:57S 24°10' W 046°20'0 0.0
2017-Oct-30 22:24S 24°10' W 046°20'0 0.0
2017-Oct-30 22:00S 24°10' W 046°20'0 0.0
2017-Oct-30 21:30S 24°10' W 046°20'0 0.0
2017-Oct-30 21:00S 24°10' W 046°20'0 0.0
2017-Oct-30 20:30S 24°10' W 046°20'0 0.0
2017-Oct-30 20:00S 24°10' W 046°20'0 0.0
2017-Oct-30 19:30S 24°10' W 046°20'0 0.0
2017-Oct-30 19:00S 24°10' W 046°20'0 0.0
2017-Oct-30 18:30S 24°10' W 046°20'0 0.0
2017-Oct-30 18:00S 24°10' W 046°20'0 0.0
2017-Oct-30 17:30S 24°10' W 046°20'0 0.0
2017-Oct-30 16:54S 24°10' W 046°20'0 0.0
2017-Oct-30 16:30S 24°10' W 046°20'0 0.0
2017-Oct-30 16:00S 24°10' W 046°20'0 0.0
2017-Oct-30 15:30S 24°10' W 046°20'0 0.0
2017-Oct-30 15:00S 24°10' W 046°20'0 0.0
2017-Oct-30 14:30S 24°10' W 046°20'0 0.0
2017-Oct-30 13:30S 24°10' W 046°20'0 0.0
2017-Oct-30 13:00S 24°10' W 046°20'0 0.0
2017-Oct-30 12:27S 24°10' W 046°20'0 0.0
2017-Oct-30 11:51S 24°10' W 046°20'0 0.0
2017-Oct-30 11:24S 24°10' W 046°20'0 0.0
2017-Oct-30 11:00S 24°10' W 046°20'0 0.0
2017-Oct-30 10:00S 24°10' W 046°20'0 0.0
2017-Oct-30 09:30S 24°10' W 046°20'0 0.0
2017-Oct-30 09:00S 24°10' W 046°20'0 0.0
2017-Oct-30 08:30S 24°10' W 046°20'0 0.0
2017-Oct-30 07:54S 24°10' W 046°20'0 0.0
2017-Oct-30 07:30S 24°10' W 046°20'0 0.0
2017-Oct-30 07:00S 24°10' W 046°20'0 0.1
2017-Oct-30 06:30S 24°10' W 046°20'0 0.1
2017-Oct-30 06:00S 24°10' W 046°20'0 0.0
2017-Oct-30 05:30S 24°10' W 046°20'0 0.0
2017-Oct-30 05:00S 24°10' W 046°20'0 0.0
2017-Oct-30 04:30S 24°10' W 046°20'0 0.1
2017-Oct-30 04:00S 24°10' W 046°20'0 0.0
2017-Oct-30 03:30S 24°10' W 046°20'0 0.0
2017-Oct-30 03:00S 24°10' W 046°20'0 0.0
2017-Oct-30 02:30S 24°10' W 046°20'0 0.0
2017-Oct-30 02:00S 24°10' W 046°20'0 0.0
2017-Oct-30 01:30S 24°10' W 046°20'0 0.0
2017-Oct-30 01:00S 24°10' W 046°20'0 0.0
2017-Oct-30 00:30S 24°10' W 046°20'0 0.0
2017-Oct-30 00:00S 24°10' W 046°20'0 0.0
2017-Oct-29 23:30S 24°10' W 046°20'0 0.1
2017-Oct-29 23:00S 24°10' W 046°20'0 0.1
2017-Oct-29 22:30S 24°10' W 046°20'0 0.0
2017-Oct-29 22:00S 24°10' W 046°20'0 0.0
2017-Oct-29 21:30S 24°10' W 046°20'0 0.0
2017-Oct-29 21:00S 24°10' W 046°20'0 0.0
2017-Oct-29 20:30S 24°10' W 046°20'0 0.0
2017-Oct-29 20:00S 24°10' W 046°20'0 0.0
2017-Oct-29 19:30S 24°10' W 046°20'0 0.0
2017-Oct-29 18:48S 24°10' W 046°20'0 0.0
2017-Oct-29 18:30S 24°10' W 046°20'0 0.0
2017-Oct-29 18:00S 24°10' W 046°20'0 0.0
2017-Oct-29 17:27S 24°10' W 046°20'0 0.0
2017-Oct-29 17:00S 24°10' W 046°20'0 0.0
2017-Oct-29 16:27S 24°10' W 046°20'0 0.0
2017-Oct-29 16:00S 24°10' W 046°20'0 0.1
2017-Oct-29 15:27S 24°10' W 046°20'0 0.0
2017-Oct-29 15:00S 24°10' W 046°20'0 0.1
2017-Oct-29 14:30S 24°10' W 046°20'0 0.0
2017-Oct-29 14:00S 24°10' W 046°20'0 0.0
2017-Oct-29 13:30S 24°10' W 046°20'0 0.0
2017-Oct-29 12:57S 24°10' W 046°20'0 0.0
2017-Oct-29 12:30S 24°10' W 046°20'0 0.0
2017-Oct-29 12:00S 24°10' W 046°20'0 0.0
2017-Oct-29 11:30S 24°10' W 046°20'0 0.0
2017-Oct-29 10:54S 24°10' W 046°20'0 0.0
2017-Oct-29 10:30S 24°10' W 046°20'0 0.0
2017-Oct-29 10:00S 24°10' W 046°20'0 0.0
2017-Oct-29 09:18S 24°10' W 046°20'0 0.0
2017-Oct-29 08:54S 24°10' W 046°20'0 0.0
2017-Oct-29 08:30S 24°10' W 046°20'0 0.0
2017-Oct-29 08:00S 24°10' W 046°20'0 0.0
2017-Oct-29 07:30S 24°10' W 046°20'0 0.0
2017-Oct-29 07:00S 24°10' W 046°20'0 0.1
2017-Oct-29 06:24S 24°10' W 046°20'0 0.2
2017-Oct-29 06:00S 24°10' W 046°20'0 0.0
2017-Oct-29 05:30S 24°10' W 046°20'0 0.0
2017-Oct-29 05:00S 24°10' W 046°20'0 0.1
2017-Oct-29 04:30S 24°10' W 046°20'0 0.1
2017-Oct-29 03:48S 24°10' W 046°20'0 0.0
2017-Oct-28 19:00S 24°10' W 046°20'0 0.0
2017-Oct-28 18:30S 24°10' W 046°20'0 0.0
2017-Oct-28 17:57S 24°10' W 046°20'0 0.0
2017-Oct-28 17:30S 24°10' W 046°20'0 0.0
2017-Oct-28 17:00S 24°10' W 046°20'0 0.0
2017-Oct-28 16:30S 24°10' W 046°20'0 0.0
2017-Oct-28 16:00S 24°10' W 046°20'0 0.0
2017-Oct-28 15:30S 24°10' W 046°20'0 0.0
2017-Oct-28 15:00S 24°10' W 046°20'0 0.0
2017-Oct-28 14:30S 24°10' W 046°20'0 0.0
2017-Oct-28 14:00S 24°10' W 046°20'0 0.1
2017-Oct-28 13:30S 24°10' W 046°20'0 0.0
2017-Oct-28 12:54S 24°10' W 046°20'0 0.0
2017-Oct-28 12:30S 24°10' W 046°20'0 0.0
2017-Oct-28 11:54S 24°10' W 046°20'0 0.0
2017-Oct-28 11:30S 24°10' W 046°20'0 0.0
2017-Oct-28 11:00S 24°10' W 046°20'0 0.1
2017-Oct-28 10:30S 24°10' W 046°20'0 0.1
2017-Oct-28 10:00S 24°10' W 046°20'0 0.0
2017-Oct-28 09:30S 24°10' W 046°20'0 0.0
2017-Oct-28 08:54S 24°10' W 046°20'0 0.1
2017-Oct-28 08:30S 24°10' W 046°20'0 0.1
2017-Oct-28 08:00S 24°10' W 046°20'0 0.1
2017-Oct-28 07:24S 24°10' W 046°20'0 0.0
2017-Oct-28 07:00S 24°10' W 046°20'0 0.1
2017-Oct-28 06:30S 24°10' W 046°20'0 0.0
2017-Oct-28 06:00S 24°10' W 046°20'0 0.1
2017-Oct-28 05:24S 24°10' W 046°20'0 0.1
2017-Oct-28 05:00S 24°10' W 046°20'0 0.0
2017-Oct-28 04:30S 24°10' W 046°20'0 0.0
2017-Oct-28 04:00S 24°10' W 046°20'0 0.1
2017-Oct-28 03:30S 24°10' W 046°20'0 0.0
2017-Oct-28 03:00S 24°10' W 046°20'0 0.0
2017-Oct-28 02:30S 24°10' W 046°20'0 0.1
2017-Oct-28 02:00S 24°10' W 046°20'0 0.2
2017-Oct-28 01:30S 24°10' W 046°20'0 0.0
2017-Oct-28 00:39S 24°10' W 046°20'0 0.0
2017-Oct-28 00:21S 24°10' W 046°20'0 0.1
2017-Oct-28 00:00S 24°10' W 046°20'0 0.0
2017-Oct-27 23:27S 24°10' W 046°20'0 0.1
2017-Oct-27 23:00S 24°10' W 046°20'0 0.0
2017-Oct-27 22:30S 24°10' W 046°20'0 0.1
2017-Oct-27 22:00S 24°10' W 046°20'0 0.0
2017-Oct-27 21:30S 24°10' W 046°20'0 0.0
2017-Oct-27 21:00S 24°10' W 046°20'0 0.0
2017-Oct-27 20:30S 24°10' W 046°20'0 0.1
2017-Oct-27 20:00S 24°10' W 046°20'0 0.0
2017-Oct-27 19:30S 24°10' W 046°20'0 0.0
2017-Oct-27 19:00S 24°10' W 046°20'0 0.0
2017-Oct-27 18:24S 24°10' W 046°20'0 0.0
2017-Oct-27 18:00S 24°10' W 046°20'0 0.1
2017-Oct-27 17:30S 24°10' W 046°20'0 0.0
2017-Oct-27 17:00S 24°10' W 046°20'0 0.0
2017-Oct-27 16:30S 24°10' W 046°20'0 0.0
2017-Oct-27 16:00S 24°10' W 046°20'0 0.0
2017-Oct-27 15:30S 24°10' W 046°20'0 0.0
2017-Oct-27 15:00S 24°10' W 046°20'0 0.0
2017-Oct-27 14:30S 24°10' W 046°20'0 0.2
2017-Oct-27 14:00S 24°10' W 046°20'2 4.7
2017-Oct-27 13:30S 24°09' W 046°22'3 5.4
2017-Oct-27 13:00S 24°06' W 046°23'2 4.6
2017-Oct-27 12:31S 24°04' W 046°22'4 8.5
2017-Oct-27 12:00S 23°60' W 046°20'3 5.6
2017-Oct-27 11:30S 23°58' W 046°18'1 1.0
2017-Oct-27 10:26S 23°57' W 046°19'0 0.0
2017-Oct-27 09:23S 23°57' W 046°19'0 0.0
2017-Oct-27 08:56S 23°57' W 046°19'0 0.0
2017-Oct-27 08:29S 23°57' W 046°19'0 0.0
2017-Oct-27 07:56S 23°57' W 046°19'0 0.0
2017-Oct-27 07:05S 23°57' W 046°19'0 0.1
2017-Oct-27 06:59S 23°57' W 046°19'0 0.0
2017-Oct-27 06:23S 23°57' W 046°19'0 0.0
2017-Oct-27 05:59S 23°57' W 046°19'0 0.0
2017-Oct-27 05:29S 23°57' W 046°19'0 0.0
2017-Oct-27 04:59S 23°57' W 046°19'0 0.0
2017-Oct-27 04:26S 23°57' W 046°19'0 0.0
2017-Oct-27 03:50S 23°57' W 046°19'0 0.0
2017-Oct-27 03:23S 23°57' W 046°19'0 0.0
2017-Oct-27 02:56S 23°57' W 046°19'0 0.0
2017-Oct-27 01:41S 23°57' W 046°19'0 0.0
2017-Oct-27 01:29S 23°57' W 046°19'0 0.0
2017-Oct-27 00:59S 23°57' W 046°19'0 0.0
2017-Oct-27 00:17S 23°57' W 046°19'0 0.0
2017-Oct-26 23:59S 23°57' W 046°19'0 0.0
2017-Oct-26 22:50S 23°57' W 046°19'0 0.0
2017-Oct-26 21:41S 23°57' W 046°19'0 0.0
2017-Oct-26 21:26S 23°57' W 046°19'0 0.0
2017-Oct-26 20:26S 23°57' W 046°19'0 0.0
2017-Oct-26 19:56S 23°57' W 046°19'0 0.0
2017-Oct-26 10:08S 23°57' W 046°19'0 0.0
2017-Oct-26 09:50S 23°57' W 046°19'0 0.0
2017-Oct-26 09:26S 23°57' W 046°19'0 0.0
2017-Oct-26 08:50S 23°57' W 046°19'0 0.0
2017-Oct-26 08:20S 23°57' W 046°19'0 0.0
2017-Oct-26 07:53S 23°57' W 046°19'0 0.0
2017-Oct-26 06:38S 23°57' W 046°19'0 0.0
2017-Oct-26 06:26S 23°57' W 046°19'0 0.0
2017-Oct-26 05:59S 23°57' W 046°19'0 0.0
2017-Oct-25 23:17S 23°57' W 046°19'0 0.0
2017-Oct-25 22:50S 23°57' W 046°19'0 0.0
2017-Oct-25 22:26S 23°57' W 046°19'0 0.0
2017-Oct-25 21:32S 23°57' W 046°19'0 0.0
2017-Oct-25 20:29S 23°57' W 046°19'0 0.0
2017-Oct-25 17:47S 23°57' W 046°19'0 0.0
2017-Oct-25 17:29S 23°57' W 046°19'0 0.0
2017-Oct-25 16:59S 23°57' W 046°19'0 0.0
2017-Oct-25 16:29S 23°57' W 046°19'0 0.0
2017-Oct-25 13:17S 23°57' W 046°19'0 0.0
2017-Oct-25 12:59S 23°57' W 046°19'0 0.0
2017-Oct-25 12:20S 23°57' W 046°19'0 0.0
2017-Oct-25 06:56S 23°57' W 046°19'0 0.0
2017-Oct-25 02:32S 23°57' W 046°19'0 0.3
2017-Oct-25 02:30S 23°57' W 046°19'3 5.1
2017-Oct-25 02:00S 23°59' W 046°17'4 7.8
2017-Oct-25 01:30S 24°01' W 046°21'5 9.9
2017-Oct-25 01:00S 24°06' W 046°23'510.8
2017-Oct-25 00:30S 24°10' W 046°19'2 4.7
2017-Oct-25 00:00S 24°10' W 046°16'2 3.1
2017-Oct-24 23:30S 24°09' W 046°18'0 0.1
2017-Oct-24 22:54S 24°09' W 046°18'0 0.0
2017-Oct-24 22:30S 24°09' W 046°18'0 0.0
2017-Oct-24 22:00S 24°09' W 046°18'0 0.0
2017-Oct-24 21:30S 24°09' W 046°18'0 0.0
2017-Oct-24 21:00S 24°09' W 046°18'0 0.0
2017-Oct-24 20:30S 24°09' W 046°18'0 0.0
2017-Oct-24 19:54S 24°09' W 046°18'0 0.0
2017-Oct-24 19:30S 24°09' W 046°18'0 0.0
2017-Oct-24 19:00S 24°09' W 046°18'0 0.0
2017-Oct-24 18:30S 24°09' W 046°18'0 0.0
2017-Oct-24 18:00S 24°09' W 046°18'0 0.0
2017-Oct-24 17:30S 24°09' W 046°18'0 0.0
2017-Oct-24 17:00S 24°09' W 046°18'0 0.1
2017-Oct-24 16:30S 24°09' W 046°18'0 0.0
2017-Oct-24 16:00S 24°09' W 046°18'0 0.0
2017-Oct-24 15:24S 24°09' W 046°18'0 0.0
2017-Oct-24 15:00S 24°09' W 046°18'0 0.0
2017-Oct-24 14:30S 24°09' W 046°18'0 0.1
2017-Oct-24 14:00S 24°09' W 046°18'0 0.1
2017-Oct-24 13:30S 24°09' W 046°18'0 0.0
2017-Oct-24 13:00S 24°09' W 046°17'0 0.0
2017-Oct-24 12:30S 24°09' W 046°17'0 0.0
2017-Oct-24 11:54S 24°09' W 046°17'0 0.0
2017-Oct-24 11:27S 24°09' W 046°17'0 0.0
2017-Oct-24 11:00S 24°09' W 046°17'0 0.0
2017-Oct-24 10:30S 24°09' W 046°18'0 0.0
2017-Oct-24 10:00S 24°09' W 046°18'0 0.1
2017-Oct-24 09:30S 24°09' W 046°17'0 0.1
2017-Oct-24 09:00S 24°09' W 046°18'0 0.1
2017-Oct-24 08:30S 24°09' W 046°17'0 0.0
2017-Oct-24 08:00S 24°09' W 046°17'0 0.0
2017-Oct-24 07:30S 24°09' W 046°17'0 0.0
2017-Oct-24 06:54S 24°09' W 046°17'0 0.0
2017-Oct-24 06:30S 24°09' W 046°17'0 0.0
2017-Oct-24 06:00S 24°09' W 046°17'0 0.0
2017-Oct-24 05:30S 24°09' W 046°17'0 0.0
2017-Oct-24 04:57S 24°09' W 046°17'0 0.0
2017-Oct-24 04:30S 24°09' W 046°17'0 0.0
2017-Oct-24 04:00S 24°09' W 046°17'0 0.0
2017-Oct-24 03:30S 24°09' W 046°17'0 0.0
2017-Oct-24 02:57S 24°09' W 046°17'0 0.0
2017-Oct-24 02:30S 24°09' W 046°17'0 0.0
2017-Oct-24 02:00S 24°09' W 046°17'0 0.0
2017-Oct-24 01:30S 24°09' W 046°17'0 0.0
2017-Oct-24 00:57S 24°09' W 046°17'0 0.0
2017-Oct-24 00:30S 24°09' W 046°17'0 0.0
2017-Oct-23 23:57S 24°09' W 046°17'0 0.0
2017-Oct-23 23:30S 24°09' W 046°17'0 0.0
2017-Oct-23 22:57S 24°09' W 046°17'0 0.0
2017-Oct-23 22:30S 24°09' W 046°17'0 0.0
2017-Oct-23 22:00S 24°09' W 046°17'0 0.0
2017-Oct-23 21:30S 24°09' W 046°17'0 0.0
2017-Oct-23 20:57S 24°09' W 046°17'0 0.0
2017-Oct-23 20:30S 24°09' W 046°17'0 0.0
2017-Oct-23 20:00S 24°09' W 046°17'0 0.0
2017-Oct-23 19:30S 24°09' W 046°17'0 0.0
2017-Oct-23 19:00S 24°09' W 046°17'0 0.1
2017-Oct-23 18:30S 24°09' W 046°18'0 0.0
2017-Oct-23 18:00S 24°09' W 046°17'0 0.0
2017-Oct-23 17:30S 24°09' W 046°17'0 0.1
2017-Oct-23 17:00S 24°09' W 046°18'0 0.0
2017-Oct-23 16:30S 24°09' W 046°18'0 0.1
2017-Oct-23 16:00S 24°09' W 046°18'0 0.1
2017-Oct-23 15:30S 24°09' W 046°18'0 0.1
2017-Oct-23 15:00S 24°09' W 046°18'0 0.0
2017-Oct-23 14:30S 24°09' W 046°18'0 0.0
2017-Oct-23 14:00S 24°09' W 046°18'0 0.1
2017-Oct-23 13:30S 24°09' W 046°18'0 0.0
2017-Oct-23 13:00S 24°09' W 046°18'0 0.0
2017-Oct-23 12:30S 24°09' W 046°18'0 0.0
2017-Oct-23 12:00S 24°09' W 046°18'0 0.0
2017-Oct-23 11:30S 24°09' W 046°18'0 0.0
2017-Oct-23 11:00S 24°09' W 046°18'0 0.0
2017-Oct-23 10:30S 24°09' W 046°18'0 0.0
2017-Oct-23 10:00S 24°09' W 046°18'0 0.0
2017-Oct-23 09:30S 24°09' W 046°18'0 0.0
2017-Oct-23 09:00S 24°09' W 046°18'0 0.0
2017-Oct-23 08:30S 24°09' W 046°18'0 0.0
2017-Oct-23 08:00S 24°09' W 046°18'0 0.0
2017-Oct-23 07:30S 24°09' W 046°18'  
Track history (hours):
 
Tides and Currents Weather Stations Pressure Air Temp Water Temp Dewpoint Dewpoint Depression Visibility Wind Speed Wind Dir Waves Ship Positions

Saga Sky

Last reported at 2017-Nov-02 07:01 UTC. Time now 2017-Nov-19 04:46 UTC.
Position S 24°31' W 046°13'.
Warning: this ship's position is 16 days out of date.

Length 199 m; draft 9.3 m.

Type: Cargo ship. MMSI: 477198000.

Date/timePositionNaut miles runAvg speedWind from/ knotsBaromVisibWave heightAir tempDewpointWater temp
2017-Nov-02 07:01S 24°31' W 046°13'012.5
2017-Nov-02 07:00S 24°30' W 046°13'612.2
2017-Nov-02 06:30S 24°26' W 046°18'612.3
2017-Nov-02 06:00S 24°21' W 046°22'612.7
2017-Nov-02 05:30S 24°15' W 046°23'612.9
2017-Nov-02 05:00S 24°08' W 046°23'611.1
2017-Nov-02 04:30S 24°03' W 046°21'4 8.3
2017-Nov-02 04:00S 23°60' W 046°19'2 4.6
2017-Nov-02 03:30S 23°57' W 046°18'1 0.0
2017-Oct-31 12:50S 23°56' W 046°19'0 0.0
2017-Oct-31 10:24S 23°56' W 046°19'0 0.0
2017-Oct-31 03:05S 23°56' W 046°19'1 3.1
2017-Oct-31 02:52S 23°57' W 046°18'3 6.9
2017-Oct-31 02:30S 23°60' W 046°18'4 8.2
2017-Oct-31 02:00S 24°02' W 046°21'510.5
2017-Oct-31 01:30S 24°07' W 046°23'2 4.7
2017-Oct-31 01:00S 24°09' W 046°23'3 5.4
2017-Oct-31 00:30S 24°10' W 046°20'0 0.5
2017-Oct-31 00:00S 24°10' W 046°20'0 0.0
2017-Oct-30 23:30S 24°10' W 046°20'0 0.0
2017-Oct-30 22:57S 24°10' W 046°20'0 0.0
2017-Oct-30 22:24S 24°10' W 046°20'0 0.0
2017-Oct-30 22:00S 24°10' W 046°20'0 0.0
2017-Oct-30 21:30S 24°10' W 046°20'0 0.0
2017-Oct-30 21:00S 24°10' W 046°20'0 0.0
2017-Oct-30 20:30S 24°10' W 046°20'0 0.0
2017-Oct-30 20:00S 24°10' W 046°20'0 0.0
2017-Oct-30 19:30S 24°10' W 046°20'0 0.0
2017-Oct-30 19:00S 24°10' W 046°20'0 0.0
2017-Oct-30 18:30S 24°10' W 046°20'0 0.0
2017-Oct-30 18:00S 24°10' W 046°20'0 0.0
2017-Oct-30 17:30S 24°10' W 046°20'0 0.0
2017-Oct-30 16:54S 24°10' W 046°20'0 0.0
2017-Oct-30 16:30S 24°10' W 046°20'0 0.0
2017-Oct-30 16:00S 24°10' W 046°20'0 0.0
2017-Oct-30 15:30S 24°10' W 046°20'0 0.0
2017-Oct-30 15:00S 24°10' W 046°20'0 0.0
2017-Oct-30 14:30S 24°10' W 046°20'0 0.0
2017-Oct-30 13:30S 24°10' W 046°20'0 0.0
2017-Oct-30 13:00S 24°10' W 046°20'0 0.0
2017-Oct-30 12:27S 24°10' W 046°20'0 0.0
2017-Oct-30 11:51S 24°10' W 046°20'0 0.0
2017-Oct-30 11:24S 24°10' W 046°20'0 0.0
2017-Oct-30 11:00S 24°10' W 046°20'0 0.0
2017-Oct-30 10:00S 24°10' W 046°20'0 0.0
2017-Oct-30 09:30S 24°10' W 046°20'0 0.0
2017-Oct-30 09:00S 24°10' W 046°20'0 0.0
2017-Oct-30 08:30S 24°10' W 046°20'0 0.0
2017-Oct-30 07:54S 24°10' W 046°20'0 0.0
2017-Oct-30 07:30S 24°10' W 046°20'0 0.0
2017-Oct-30 07:00S 24°10' W 046°20'0 0.1
2017-Oct-30 06:30S 24°10' W 046°20'0 0.1
2017-Oct-30 06:00S 24°10' W 046°20'0 0.0
2017-Oct-30 05:30S 24°10' W 046°20'0 0.0
2017-Oct-30 05:00S 24°10' W 046°20'0 0.0
2017-Oct-30 04:30S 24°10' W 046°20'0 0.1
2017-Oct-30 04:00S 24°10' W 046°20'0 0.0
2017-Oct-30 03:30S 24°10' W 046°20'0 0.0
2017-Oct-30 03:00S 24°10' W 046°20'0 0.0
2017-Oct-30 02:30S 24°10' W 046°20'0 0.0
2017-Oct-30 02:00S 24°10' W 046°20'0 0.0
2017-Oct-30 01:30S 24°10' W 046°20'0 0.0
2017-Oct-30 01:00S 24°10' W 046°20'0 0.0
2017-Oct-30 00:30S 24°10' W 046°20'0 0.0
2017-Oct-30 00:00S 24°10' W 046°20'0 0.0
2017-Oct-29 23:30S 24°10' W 046°20'0 0.1
2017-Oct-29 23:00S 24°10' W 046°20'0 0.1
2017-Oct-29 22:30S 24°10' W 046°20'0 0.0
2017-Oct-29 22:00S 24°10' W 046°20'0 0.0
2017-Oct-29 21:30S 24°10' W 046°20'0 0.0
2017-Oct-29 21:00S 24°10' W 046°20'0 0.0
2017-Oct-29 20:30S 24°10' W 046°20'0 0.0
2017-Oct-29 20:00S 24°10' W 046°20'0 0.0
2017-Oct-29 19:30S 24°10' W 046°20'0 0.0
2017-Oct-29 18:48S 24°10' W 046°20'0 0.0
2017-Oct-29 18:30S 24°10' W 046°20'0 0.0
2017-Oct-29 18:00S 24°10' W 046°20'0 0.0
2017-Oct-29 17:27S 24°10' W 046°20'0 0.0
2017-Oct-29 17:00S 24°10' W 046°20'0 0.0
2017-Oct-29 16:27S 24°10' W 046°20'0 0.0
2017-Oct-29 16:00S 24°10' W 046°20'0 0.1
2017-Oct-29 15:27S 24°10' W 046°20'0 0.0
2017-Oct-29 15:00S 24°10' W 046°20'0 0.1
2017-Oct-29 14:30S 24°10' W 046°20'0 0.0
2017-Oct-29 14:00S 24°10' W 046°20'0 0.0
2017-Oct-29 13:30S 24°10' W 046°20'0 0.0
2017-Oct-29 12:57S 24°10' W 046°20'0 0.0
2017-Oct-29 12:30S 24°10' W 046°20'0 0.0
2017-Oct-29 12:00S 24°10' W 046°20'0 0.0
2017-Oct-29 11:30S 24°10' W 046°20'0 0.0
2017-Oct-29 10:54S 24°10' W 046°20'0 0.0
2017-Oct-29 10:30S 24°10' W 046°20'0 0.0
2017-Oct-29 10:00S 24°10' W 046°20'0 0.0
2017-Oct-29 09:18S 24°10' W 046°20'0 0.0
2017-Oct-29 08:54S 24°10' W 046°20'0 0.0
2017-Oct-29 08:30S 24°10' W 046°20'0 0.0
2017-Oct-29 08:00S 24°10' W 046°20'0 0.0
2017-Oct-29 07:30S 24°10' W 046°20'0 0.0
2017-Oct-29 07:00S 24°10' W 046°20'0 0.1
2017-Oct-29 06:24S 24°10' W 046°20'0 0.2
2017-Oct-29 06:00S 24°10' W 046°20'0 0.0
2017-Oct-29 05:30S 24°10' W 046°20'0 0.0
2017-Oct-29 05:00S 24°10' W 046°20'0 0.1
2017-Oct-29 04:30S 24°10' W 046°20'0 0.1
2017-Oct-29 03:48S 24°10' W 046°20'0 0.0
2017-Oct-28 19:00S 24°10' W 046°20'0 0.0
2017-Oct-28 18:30S 24°10' W 046°20'0 0.0
2017-Oct-28 17:57S 24°10' W 046°20'0 0.0
2017-Oct-28 17:30S 24°10' W 046°20'0 0.0
2017-Oct-28 17:00S 24°10' W 046°20'0 0.0
2017-Oct-28 16:30S 24°10' W 046°20'0 0.0
2017-Oct-28 16:00S 24°10' W 046°20'0 0.0
2017-Oct-28 15:30S 24°10' W 046°20'0 0.0
2017-Oct-28 15:00S 24°10' W 046°20'0 0.0
2017-Oct-28 14:30S 24°10' W 046°20'0 0.0
2017-Oct-28 14:00S 24°10' W 046°20'0 0.1
2017-Oct-28 13:30S 24°10' W 046°20'0 0.0
2017-Oct-28 12:54S 24°10' W 046°20'0 0.0
2017-Oct-28 12:30S 24°10' W 046°20'0 0.0
2017-Oct-28 11:54S 24°10' W 046°20'0 0.0
2017-Oct-28 11:30S 24°10' W 046°20'0 0.0
2017-Oct-28 11:00S 24°10' W 046°20'0 0.1
2017-Oct-28 10:30S 24°10' W 046°20'0 0.1
2017-Oct-28 10:00S 24°10' W 046°20'0 0.0
2017-Oct-28 09:30S 24°10' W 046°20'0 0.0
2017-Oct-28 08:54S 24°10' W 046°20'0 0.1
2017-Oct-28 08:30S 24°10' W 046°20'0 0.1
2017-Oct-28 08:00S 24°10' W 046°20'0 0.1
2017-Oct-28 07:24S 24°10' W 046°20'0 0.0
2017-Oct-28 07:00S 24°10' W 046°20'0 0.1
2017-Oct-28 06:30S 24°10' W 046°20'0 0.0
2017-Oct-28 06:00S 24°10' W 046°20'0 0.1
2017-Oct-28 05:24S 24°10' W 046°20'0 0.1
2017-Oct-28 05:00S 24°10' W 046°20'0 0.0
2017-Oct-28 04:30S 24°10' W 046°20'0 0.0
2017-Oct-28 04:00S 24°10' W 046°20'0 0.1
2017-Oct-28 03:30S 24°10' W 046°20'0 0.0
2017-Oct-28 03:00S 24°10' W 046°20'0 0.0
2017-Oct-28 02:30S 24°10' W 046°20'0 0.1
2017-Oct-28 02:00S 24°10' W 046°20'0 0.2
2017-Oct-28 01:30S 24°10' W 046°20'0 0.0
2017-Oct-28 00:39S 24°10' W 046°20'0 0.0
2017-Oct-28 00:21S 24°10' W 046°20'0 0.1
2017-Oct-28 00:00S 24°10' W 046°20'0 0.0
2017-Oct-27 23:27S 24°10' W 046°20'0 0.1
2017-Oct-27 23:00S 24°10' W 046°20'0 0.0
2017-Oct-27 22:30S 24°10' W 046°20'0 0.1
2017-Oct-27 22:00S 24°10' W 046°20'0 0.0
2017-Oct-27 21:30S 24°10' W 046°20'0 0.0
2017-Oct-27 21:00S 24°10' W 046°20'0 0.0
2017-Oct-27 20:30S 24°10' W 046°20'0 0.1
2017-Oct-27 20:00S 24°10' W 046°20'0 0.0
2017-Oct-27 19:30S 24°10' W 046°20'0 0.0
2017-Oct-27 19:00S 24°10' W 046°20'0 0.0
2017-Oct-27 18:24S 24°10' W 046°20'0 0.0
2017-Oct-27 18:00S 24°10' W 046°20'0 0.1
2017-Oct-27 17:30S 24°10' W 046°20'0 0.0
2017-Oct-27 17:00S 24°10' W 046°20'0 0.0
2017-Oct-27 16:30S 24°10' W 046°20'0 0.0
2017-Oct-27 16:00S 24°10' W 046°20'0 0.0
2017-Oct-27 15:30S 24°10' W 046°20'0 0.0
2017-Oct-27 15:00S 24°10' W 046°20'0 0.0
2017-Oct-27 14:30S 24°10' W 046°20'0 0.2
2017-Oct-27 14:00S 24°10' W 046°20'2 4.7
2017-Oct-27 13:30S 24°09' W 046°22'3 5.4
2017-Oct-27 13:00S 24°06' W 046°23'2 4.6
2017-Oct-27 12:31S 24°04' W 046°22'4 8.5
2017-Oct-27 12:00S 23°60' W 046°20'3 5.6
2017-Oct-27 11:30S 23°58' W 046°18'1 1.0
2017-Oct-27 10:26S 23°57' W 046°19'0 0.0
2017-Oct-27 09:23S 23°57' W 046°19'0 0.0
2017-Oct-27 08:56S 23°57' W 046°19'0 0.0
2017-Oct-27 08:29S 23°57' W 046°19'0 0.0
2017-Oct-27 07:56S 23°57' W 046°19'0 0.0
2017-Oct-27 07:05S 23°57' W 046°19'0 0.1
2017-Oct-27 06:59S 23°57' W 046°19'0 0.0
2017-Oct-27 06:23S 23°57' W 046°19'0 0.0
2017-Oct-27 05:59S 23°57' W 046°19'0 0.0
2017-Oct-27 05:29S 23°57' W 046°19'0 0.0
2017-Oct-27 04:59S 23°57' W 046°19'0 0.0
2017-Oct-27 04:26S 23°57' W 046°19'0 0.0
2017-Oct-27 03:50S 23°57' W 046°19'0 0.0
2017-Oct-27 03:23S 23°57' W 046°19'0 0.0
2017-Oct-27 02:56S 23°57' W 046°19'0 0.0
2017-Oct-27 01:41S 23°57' W 046°19'0 0.0
2017-Oct-27 01:29S 23°57' W 046°19'0 0.0
2017-Oct-27 00:59S 23°57' W 046°19'0 0.0
2017-Oct-27 00:17S 23°57' W 046°19'0 0.0
2017-Oct-26 23:59S 23°57' W 046°19'0 0.0
2017-Oct-26 22:50S 23°57' W 046°19'0 0.0
2017-Oct-26 21:41S 23°57' W 046°19'0 0.0
2017-Oct-26 21:26S 23°57' W 046°19'0 0.0
2017-Oct-26 20:26S 23°57' W 046°19'0 0.0
2017-Oct-26 19:56S 23°57' W 046°19'0 0.0
2017-Oct-26 10:08S 23°57' W 046°19'0 0.0
2017-Oct-26 09:50S 23°57' W 046°19'0 0.0
2017-Oct-26 09:26S 23°57' W 046°19'0 0.0
2017-Oct-26 08:50S 23°57' W 046°19'0 0.0
2017-Oct-26 08:20S 23°57' W 046°19'0 0.0
2017-Oct-26 07:53S 23°57' W 046°19'0 0.0
2017-Oct-26 06:38S 23°57' W 046°19'0 0.0
2017-Oct-26 06:26S 23°57' W 046°19'0 0.0
2017-Oct-26 05:59S 23°57' W 046°19'0 0.0
2017-Oct-25 23:17S 23°57' W 046°19'0 0.0
2017-Oct-25 22:50S 23°57' W 046°19'0 0.0
2017-Oct-25 22:26S 23°57' W 046°19'0 0.0
2017-Oct-25 21:32S 23°57' W 046°19'0 0.0
2017-Oct-25 20:29S 23°57' W 046°19'0 0.0
2017-Oct-25 17:47S 23°57' W 046°19'0 0.0
2017-Oct-25 17:29S 23°57' W 046°19'0 0.0
2017-Oct-25 16:59S 23°57' W 046°19'0 0.0
2017-Oct-25 16:29S 23°57' W 046°19'0 0.0
2017-Oct-25 13:17S 23°57' W 046°19'0 0.0
2017-Oct-25 12:59S 23°57' W 046°19'0 0.0
2017-Oct-25 12:20S 23°57' W 046°19'0 0.0
2017-Oct-25 06:56S 23°57' W 046°19'0 0.0
2017-Oct-25 02:32S 23°57' W 046°19'0 0.3
2017-Oct-25 02:30S 23°57' W 046°19'3 5.1
2017-Oct-25 02:00S 23°59' W 046°17'4 7.8
2017-Oct-25 01:30S 24°01' W 046°21'5 9.9
2017-Oct-25 01:00S 24°06' W 046°23'510.8
2017-Oct-25 00:30S 24°10' W 046°19'2 4.7
2017-Oct-25 00:00S 24°10' W 046°16'2 3.1
2017-Oct-24 23:30S 24°09' W 046°18'0 0.1
2017-Oct-24 22:54S 24°09' W 046°18'0 0.0
2017-Oct-24 22:30S 24°09' W 046°18'0 0.0
2017-Oct-24 22:00S 24°09' W 046°18'0 0.0
2017-Oct-24 21:30S 24°09' W 046°18'0 0.0
2017-Oct-24 21:00S 24°09' W 046°18'0 0.0
2017-Oct-24 20:30S 24°09' W 046°18'0 0.0
2017-Oct-24 19:54S 24°09' W 046°18'0 0.0
2017-Oct-24 19:30S 24°09' W 046°18'0 0.0
2017-Oct-24 19:00S 24°09' W 046°18'0 0.0
2017-Oct-24 18:30S 24°09' W 046°18'0 0.0
2017-Oct-24 18:00S 24°09' W 046°18'0 0.0
2017-Oct-24 17:30S 24°09' W 046°18'0 0.0
2017-Oct-24 17:00S 24°09' W 046°18'0 0.1
2017-Oct-24 16:30S 24°09' W 046°18'0 0.0
2017-Oct-24 16:00S 24°09' W 046°18'0 0.0
2017-Oct-24 15:24S 24°09' W 046°18'0 0.0
2017-Oct-24 15:00S 24°09' W 046°18'0 0.0
2017-Oct-24 14:30S 24°09' W 046°18'0 0.1
2017-Oct-24 14:00S 24°09' W 046°18'0 0.1
2017-Oct-24 13:30S 24°09' W 046°18'0 0.0
2017-Oct-24 13:00S 24°09' W 046°17'0 0.0
2017-Oct-24 12:30S 24°09' W 046°17'0 0.0
2017-Oct-24 11:54S 24°09' W 046°17'0 0.0
2017-Oct-24 11:27S 24°09' W 046°17'0 0.0
2017-Oct-24 11:00S 24°09' W 046°17'0 0.0
2017-Oct-24 10:30S 24°09' W 046°18'0 0.0
2017-Oct-24 10:00S 24°09' W 046°18'0 0.1
2017-Oct-24 09:30S 24°09' W 046°17'0 0.1
2017-Oct-24 09:00S 24°09' W 046°18'0 0.1
2017-Oct-24 08:30S 24°09' W 046°17'0 0.0
2017-Oct-24 08:00S 24°09' W 046°17'0 0.0
2017-Oct-24 07:30S 24°09' W 046°17'0 0.0
2017-Oct-24 06:54S 24°09' W 046°17'0 0.0
2017-Oct-24 06:30S 24°09' W 046°17'0 0.0
2017-Oct-24 06:00S 24°09' W 046°17'0 0.0
2017-Oct-24 05:30S 24°09' W 046°17'0 0.0
2017-Oct-24 04:57S 24°09' W 046°17'0 0.0
2017-Oct-24 04:30S 24°09' W 046°17'0 0.0
2017-Oct-24 04:00S 24°09' W 046°17'0 0.0
2017-Oct-24 03:30S 24°09' W 046°17'0 0.0
2017-Oct-24 02:57S 24°09' W 046°17'0 0.0
2017-Oct-24 02:30S 24°09' W 046°17'0 0.0
2017-Oct-24 02:00S 24°09' W 046°17'0 0.0
2017-Oct-24 01:30S 24°09' W 046°17'0 0.0
2017-Oct-24 00:57S 24°09' W 046°17'0 0.0
2017-Oct-24 00:30S 24°09' W 046°17'0 0.0
2017-Oct-23 23:57S 24°09' W 046°17'0 0.0
2017-Oct-23 23:30S 24°09' W 046°17'0 0.0
2017-Oct-23 22:57S 24°09' W 046°17'0 0.0
2017-Oct-23 22:30S 24°09' W 046°17'0 0.0
2017-Oct-23 22:00S 24°09' W 046°17'0 0.0
2017-Oct-23 21:30S 24°09' W 046°17'0 0.0
2017-Oct-23 20:57S 24°09' W 046°17'0 0.0
2017-Oct-23 20:30S 24°09' W 046°17'0 0.0
2017-Oct-23 20:00S 24°09' W 046°17'0 0.0
2017-Oct-23 19:30S 24°09' W 046°17'0 0.0
2017-Oct-23 19:00S 24°09' W 046°17'0 0.1
2017-Oct-23 18:30S 24°09' W 046°18'0 0.0
2017-Oct-23 18:00S 24°09' W 046°17'0 0.0
2017-Oct-23 17:30S 24°09' W 046°17'0 0.1
2017-Oct-23 17:00S 24°09' W 046°18'0 0.0
2017-Oct-23 16:30S 24°09' W 046°18'0 0.1
2017-Oct-23 16:00S 24°09' W 046°18'0 0.1
2017-Oct-23 15:30S 24°09' W 046°18'0 0.1
2017-Oct-23 15:00S 24°09' W 046°18'0 0.0
2017-Oct-23 14:30S 24°09' W 046°18'0 0.0
2017-Oct-23 14:00S 24°09' W 046°18'0 0.1
2017-Oct-23 13:30S 24°09' W 046°18'0 0.0
2017-Oct-23 13:00S 24°09' W 046°18'0 0.0
2017-Oct-23 12:30S 24°09' W 046°18'0 0.0
2017-Oct-23 12:00S 24°09' W 046°18'0 0.0
2017-Oct-23 11:30S 24°09' W 046°18'0 0.0
2017-Oct-23 11:00S 24°09' W 046°18'0 0.0
2017-Oct-23 10:30S 24°09' W 046°18'0 0.0
2017-Oct-23 10:00S 24°09' W 046°18'0 0.0
2017-Oct-23 09:30S 24°09' W 046°18'0 0.0
2017-Oct-23 09:00S 24°09' W 046°18'0 0.0
2017-Oct-23 08:30S 24°09' W 046°18'0 0.0
2017-Oct-23 08:00S 24°09' W 046°18'0 0.0
2017-Oct-23 07:30S 24°09' W 046°18'  

Dump ship's entire track history